sensor_id;sensor_type;location;lat;lon;timestamp;temperature;humidity
7028;DHT22;3555;53.248;10.336;2023-11-19T00:00:16;4.90;99.90
7028;DHT22;3555;53.248;10.336;2023-11-19T00:02:44;4.90;99.90
7028;DHT22;3555;53.248;10.336;2023-11-19T00:05:13;4.90;99.90
7028;DHT22;3555;53.248;10.336;2023-11-19T00:07:40;4.90;99.90
7028;DHT22;3555;53.248;10.336;2023-11-19T00:10:08;5.00;99.90
7028;DHT22;3555;53.248;10.336;2023-11-19T00:12:36;4.90;99.90
7028;DHT22;3555;53.248;10.336;2023-11-19T00:15:03;4.90;99.90
7028;DHT22;3555;53.248;10.336;2023-11-19T00:17:30;4.90;99.90
7028;DHT22;3555;53.248;10.336;2023-11-19T00:19:59;4.90;99.90
7028;DHT22;3555;53.248;10.336;2023-11-19T00:22:26;5.00;99.90
7028;DHT22;3555;53.248;10.336;2023-11-19T00:24:53;4.90;99.90
7028;DHT22;3555;53.248;10.336;2023-11-19T00:27:20;4.90;99.90
7028;DHT22;3555;53.248;10.336;2023-11-19T00:29:47;4.90;99.90
7028;DHT22;3555;53.248;10.336;2023-11-19T00:32:14;5.00;99.90
7028;DHT22;3555;53.248;10.336;2023-11-19T00:34:43;5.00;99.90
7028;DHT22;3555;53.248;10.336;2023-11-19T00:37:12;5.00;99.90
7028;DHT22;3555;53.248;10.336;2023-11-19T00:39:39;5.10;99.90
7028;DHT22;3555;53.248;10.336;2023-11-19T00:42:06;5.10;99.90
7028;DHT22;3555;53.248;10.336;2023-11-19T00:44:33;5.00;99.90
7028;DHT22;3555;53.248;10.336;2023-11-19T00:47:00;5.10;99.90
7028;DHT22;3555;53.248;10.336;2023-11-19T00:49:27;5.00;99.90
7028;DHT22;3555;53.248;10.336;2023-11-19T00:51:54;5.10;99.90
7028;DHT22;3555;53.248;10.336;2023-11-19T00:54:22;5.10;99.90
7028;DHT22;3555;53.248;10.336;2023-11-19T00:56:51;5.10;99.90
7028;DHT22;3555;53.248;10.336;2023-11-19T00:59:18;5.00;99.90
7028;DHT22;3555;53.248;10.336;2023-11-19T01:01:45;5.00;99.90
7028;DHT22;3555;53.248;10.336;2023-11-19T01:04:13;5.00;99.90
7028;DHT22;3555;53.248;10.336;2023-11-19T01:06:40;5.00;99.90
7028;DHT22;3555;53.248;10.336;2023-11-19T01:09:08;5.00;99.90
7028;DHT22;3555;53.248;10.336;2023-11-19T01:11:36;5.10;99.90
7028;DHT22;3555;53.248;10.336;2023-11-19T01:14:03;5.20;99.90
7028;DHT22;3555;53.248;10.336;2023-11-19T01:16:30;5.10;99.90
7028;DHT22;3555;53.248;10.336;2023-11-19T01:18:57;5.10;99.90
7028;DHT22;3555;53.248;10.336;2023-11-19T01:21:23;5.10;99.90
7028;DHT22;3555;53.248;10.336;2023-11-19T01:23:51;5.10;99.90
7028;DHT22;3555;53.248;10.336;2023-11-19T01:26:18;5.10;99.90
7028;DHT22;3555;53.248;10.336;2023-11-19T01:28:46;5.20;99.90
7028;DHT22;3555;53.248;10.336;2023-11-19T01:31:15;5.20;99.90
7028;DHT22;3555;53.248;10.336;2023-11-19T01:33:42;5.30;99.90
7028;DHT22;3555;53.248;10.336;2023-11-19T01:36:12;5.30;99.90
7028;DHT22;3555;53.248;10.336;2023-11-19T01:38:39;5.20;99.90
7028;DHT22;3555;53.248;10.336;2023-11-19T01:41:06;5.30;99.90
7028;DHT22;3555;53.248;10.336;2023-11-19T01:43:34;5.20;99.90
7028;DHT22;3555;53.248;10.336;2023-11-19T01:46:04;5.20;99.90
7028;DHT22;3555;53.248;10.336;2023-11-19T01:48:31;5.30;99.90
7028;DHT22;3555;53.248;10.336;2023-11-19T01:51:00;5.30;99.90
7028;DHT22;3555;53.248;10.336;2023-11-19T01:53:28;5.30;99.90
7028;DHT22;3555;53.248;10.336;2023-11-19T01:55:55;5.30;99.90
7028;DHT22;3555;53.248;10.336;2023-11-19T01:58:23;5.30;99.90
7028;DHT22;3555;53.248;10.336;2023-11-19T02:00:51;5.20;99.90
7028;DHT22;3555;53.248;10.336;2023-11-19T02:03:20;5.20;99.90
7028;DHT22;3555;53.248;10.336;2023-11-19T02:05:48;5.30;99.90
7028;DHT22;3555;53.248;10.336;2023-11-19T02:08:16;5.30;99.90
7028;DHT22;3555;53.248;10.336;2023-11-19T02:10:43;5.30;99.90
7028;DHT22;3555;53.248;10.336;2023-11-19T02:13:10;5.30;99.90
7028;DHT22;3555;53.248;10.336;2023-11-19T02:15:39;5.30;99.90
7028;DHT22;3555;53.248;10.336;2023-11-19T02:18:21;5.30;99.90
7028;DHT22;3555;53.248;10.336;2023-11-19T02:20:48;5.30;99.90
7028;DHT22;3555;53.248;10.336;2023-11-19T02:23:16;5.40;99.90
7028;DHT22;3555;53.248;10.336;2023-11-19T02:25:46;5.30;99.90
7028;DHT22;3555;53.248;10.336;2023-11-19T02:28:17;5.30;99.90
7028;DHT22;3555;53.248;10.336;2023-11-19T02:30:44;5.30;99.90
7028;DHT22;3555;53.248;10.336;2023-11-19T02:33:11;5.30;99.90
7028;DHT22;3555;53.248;10.336;2023-11-19T02:35:38;5.40;99.90
7028;DHT22;3555;53.248;10.336;2023-11-19T02:38:06;5.40;99.90
7028;DHT22;3555;53.248;10.336;2023-11-19T02:40:33;5.50;99.90
7028;DHT22;3555;53.248;10.336;2023-11-19T02:43:00;5.40;99.90
7028;DHT22;3555;53.248;10.336;2023-11-19T02:45:32;5.40;99.90
7028;DHT22;3555;53.248;10.336;2023-11-19T02:47:59;5.40;99.90
7028;DHT22;3555;53.248;10.336;2023-11-19T02:50:27;5.40;99.90
7028;DHT22;3555;53.248;10.336;2023-11-19T02:52:55;5.50;99.90
7028;DHT22;3555;53.248;10.336;2023-11-19T02:55:23;5.60;99.90
7028;DHT22;3555;53.248;10.336;2023-11-19T02:57:51;5.60;99.90
7028;DHT22;3555;53.248;10.336;2023-11-19T03:00:19;5.50;99.90
7028;DHT22;3555;53.248;10.336;2023-11-19T03:02:51;5.50;99.90
7028;DHT22;3555;53.248;10.336;2023-11-19T03:05:25;5.50;99.90
7028;DHT22;3555;53.248;10.336;2023-11-19T03:07:52;5.60;99.90
7028;DHT22;3555;53.248;10.336;2023-11-19T03:10:19;5.60;99.90
7028;DHT22;3555;53.248;10.336;2023-11-19T03:12:46;5.70;99.90
7028;DHT22;3555;53.248;10.336;2023-11-19T03:15:13;5.60;99.90
7028;DHT22;3555;53.248;10.336;2023-11-19T03:17:40;5.70;99.90
7028;DHT22;3555;53.248;10.336;2023-11-19T03:20:10;5.60;99.90
7028;DHT22;3555;53.248;10.336;2023-11-19T03:22:41;5.70;99.90
7028;DHT22;3555;53.248;10.336;2023-11-19T03:25:08;5.60;99.90
7028;DHT22;3555;53.248;10.336;2023-11-19T03:27:35;5.70;99.90
7028;DHT22;3555;53.248;10.336;2023-11-19T03:30:03;5.70;99.90
7028;DHT22;3555;53.248;10.336;2023-11-19T03:32:31;5.70;99.90
7028;DHT22;3555;53.248;10.336;2023-11-19T03:34:58;6.00;99.90
7028;DHT22;3555;53.248;10.336;2023-11-19T03:37:27;5.80;99.90
7028;DHT22;3555;53.248;10.336;2023-11-19T03:39:54;5.80;99.90
7028;DHT22;3555;53.248;10.336;2023-11-19T03:42:25;5.90;99.90
7028;DHT22;3555;53.248;10.336;2023-11-19T03:44:52;6.00;99.90
7028;DHT22;3555;53.248;10.336;2023-11-19T03:47:19;6.00;99.90
7028;DHT22;3555;53.248;10.336;2023-11-19T03:49:48;6.10;99.90
7028;DHT22;3555;53.248;10.336;2023-11-19T03:52:15;6.30;99.90
7028;DHT22;3555;53.248;10.336;2023-11-19T03:54:44;6.20;99.90
7028;DHT22;3555;53.248;10.336;2023-11-19T03:57:13;6.30;99.90
7028;DHT22;3555;53.248;10.336;2023-11-19T03:59:41;6.30;99.90
7028;DHT22;3555;53.248;10.336;2023-11-19T04:02:08;6.30;99.90
7028;DHT22;3555;53.248;10.336;2023-11-19T04:04:35;6.40;99.90
7028;DHT22;3555;53.248;10.336;2023-11-19T04:07:03;7.10;99.90
7028;DHT22;3555;53.248;10.336;2023-11-19T04:09:30;6.40;99.90
7028;DHT22;3555;53.248;10.336;2023-11-19T04:11:59;6.40;99.90
7028;DHT22;3555;53.248;10.336;2023-11-19T04:14:27;6.50;99.90
7028;DHT22;3555;53.248;10.336;2023-11-19T04:16:54;6.50;99.90
7028;DHT22;3555;53.248;10.336;2023-11-19T04:19:21;6.70;99.90
7028;DHT22;3555;53.248;10.336;2023-11-19T04:21:48;6.70;99.90
7028;DHT22;3555;53.248;10.336;2023-11-19T04:24:15;6.60;99.90
7028;DHT22;3555;53.248;10.336;2023-11-19T04:26:43;6.80;99.90
7028;DHT22;3555;53.248;10.336;2023-11-19T04:29:13;6.80;99.90
7028;DHT22;3555;53.248;10.336;2023-11-19T04:31:42;6.80;99.90
7028;DHT22;3555;53.248;10.336;2023-11-19T04:34:10;6.90;99.90
7028;DHT22;3555;53.248;10.336;2023-11-19T04:36:37;7.00;99.90
7028;DHT22;3555;53.248;10.336;2023-11-19T04:39:04;7.10;99.90
7028;DHT22;3555;53.248;10.336;2023-11-19T04:41:35;7.10;99.90
7028;DHT22;3555;53.248;10.336;2023-11-19T04:44:02;7.20;99.90
7028;DHT22;3555;53.248;10.336;2023-11-19T04:46:30;7.20;99.90
7028;DHT22;3555;53.248;10.336;2023-11-19T04:48:57;7.30;99.90
7028;DHT22;3555;53.248;10.336;2023-11-19T04:51:24;7.30;99.90
7028;DHT22;3555;53.248;10.336;2023-11-19T04:53:51;7.40;99.90
7028;DHT22;3555;53.248;10.336;2023-11-19T04:56:18;7.40;99.90
7028;DHT22;3555;53.248;10.336;2023-11-19T04:58:47;7.50;99.90
7028;DHT22;3555;53.248;10.336;2023-11-19T05:01:15;7.50;99.90
7028;DHT22;3555;53.248;10.336;2023-11-19T05:03:44;7.50;99.90
7028;DHT22;3555;53.248;10.336;2023-11-19T05:06:12;7.60;99.90
7028;DHT22;3555;53.248;10.336;2023-11-19T05:08:39;7.70;99.90
7028;DHT22;3555;53.248;10.336;2023-11-19T05:11:06;7.70;99.90
7028;DHT22;3555;53.248;10.336;2023-11-19T05:13:32;7.80;99.90
7028;DHT22;3555;53.248;10.336;2023-11-19T05:15:59;7.80;99.90
7028;DHT22;3555;53.248;10.336;2023-11-19T05:18:26;7.90;99.90
7028;DHT22;3555;53.248;10.336;2023-11-19T05:20:54;7.90;99.90
7028;DHT22;3555;53.248;10.336;2023-11-19T05:23:21;8.00;99.90
7028;DHT22;3555;53.248;10.336;2023-11-19T05:25:48;8.00;99.90
7028;DHT22;3555;53.248;10.336;2023-11-19T05:28:15;8.10;99.90
7028;DHT22;3555;53.248;10.336;2023-11-19T05:30:42;8.10;99.90
7028;DHT22;3555;53.248;10.336;2023-11-19T05:33:10;8.20;99.90
7028;DHT22;3555;53.248;10.336;2023-11-19T05:35:37;8.20;99.90
7028;DHT22;3555;53.248;10.336;2023-11-19T05:38:05;8.20;99.90
7028;DHT22;3555;53.248;10.336;2023-11-19T05:40:32;8.20;99.90
7028;DHT22;3555;53.248;10.336;2023-11-19T05:42:59;8.30;99.90
7028;DHT22;3555;53.248;10.336;2023-11-19T05:45:26;8.40;99.90
7028;DHT22;3555;53.248;10.336;2023-11-19T05:47:53;8.40;99.90
7028;DHT22;3555;53.248;10.336;2023-11-19T05:50:20;8.40;99.90
7028;DHT22;3555;53.248;10.336;2023-11-19T05:52:47;8.50;99.90
7028;DHT22;3555;53.248;10.336;2023-11-19T05:55:15;8.50;99.90
7028;DHT22;3555;53.248;10.336;2023-11-19T05:57:42;8.50;99.90
7028;DHT22;3555;53.248;10.336;2023-11-19T06:00:11;8.60;99.90
7028;DHT22;3555;53.248;10.336;2023-11-19T06:02:39;8.60;99.90
7028;DHT22;3555;53.248;10.336;2023-11-19T06:05:06;8.70;99.90
7028;DHT22;3555;53.248;10.336;2023-11-19T06:07:35;8.70;99.90
7028;DHT22;3555;53.248;10.336;2023-11-19T06:10:05;8.70;99.90
7028;DHT22;3555;53.248;10.336;2023-11-19T06:12:34;8.80;99.90
7028;DHT22;3555;53.248;10.336;2023-11-19T06:15:04;8.90;99.90
7028;DHT22;3555;53.248;10.336;2023-11-19T06:17:31;8.90;99.90
7028;DHT22;3555;53.248;10.336;2023-11-19T06:19:58;8.90;99.90
7028;DHT22;3555;53.248;10.336;2023-11-19T06:22:25;8.90;99.90
7028;DHT22;3555;53.248;10.336;2023-11-19T06:24:52;9.00;99.90
7028;DHT22;3555;53.248;10.336;2023-11-19T06:27:19;9.20;99.90
7028;DHT22;3555;53.248;10.336;2023-11-19T06:29:47;9.20;99.90
7028;DHT22;3555;53.248;10.336;2023-11-19T06:32:14;9.10;99.90
7028;DHT22;3555;53.248;10.336;2023-11-19T06:34:41;9.20;99.90
7028;DHT22;3555;53.248;10.336;2023-11-19T06:37:08;9.20;99.90
7028;DHT22;3555;53.248;10.336;2023-11-19T06:39:35;9.30;99.90
7028;DHT22;3555;53.248;10.336;2023-11-19T06:42:03;9.40;99.90
7028;DHT22;3555;53.248;10.336;2023-11-19T06:44:30;9.50;99.90
7028;DHT22;3555;53.248;10.336;2023-11-19T06:46:59;9.60;99.90
7028;DHT22;3555;53.248;10.336;2023-11-19T06:49:25;9.70;99.90
7028;DHT22;3555;53.248;10.336;2023-11-19T06:51:52;9.80;99.90
7028;DHT22;3555;53.248;10.336;2023-11-19T06:54:19;9.80;99.90
7028;DHT22;3555;53.248;10.336;2023-11-19T06:56:46;9.90;99.90
7028;DHT22;3555;53.248;10.336;2023-11-19T06:59:13;9.90;99.90
7028;DHT22;3555;53.248;10.336;2023-11-19T07:01:39;10.00;99.90
7028;DHT22;3555;53.248;10.336;2023-11-19T07:04:11;10.10;99.90
7028;DHT22;3555;53.248;10.336;2023-11-19T07:06:39;10.10;99.90
7028;DHT22;3555;53.248;10.336;2023-11-19T07:09:06;10.10;99.90
7028;DHT22;3555;53.248;10.336;2023-11-19T07:11:36;10.20;99.90
7028;DHT22;3555;53.248;10.336;2023-11-19T07:14:04;10.20;99.90
7028;DHT22;3555;53.248;10.336;2023-11-19T07:16:31;10.20;99.90
7028;DHT22;3555;53.248;10.336;2023-11-19T07:18:59;10.30;99.90
7028;DHT22;3555;53.248;10.336;2023-11-19T07:21:28;10.30;99.90
7028;DHT22;3555;53.248;10.336;2023-11-19T07:23:55;10.30;99.90
7028;DHT22;3555;53.248;10.336;2023-11-19T07:26:22;10.30;99.90
7028;DHT22;3555;53.248;10.336;2023-11-19T07:28:49;10.30;99.90
7028;DHT22;3555;53.248;10.336;2023-11-19T07:31:17;10.40;99.90
7028;DHT22;3555;53.248;10.336;2023-11-19T07:33:45;10.40;99.90
7028;DHT22;3555;53.248;10.336;2023-11-19T07:36:12;10.40;99.90
7028;DHT22;3555;53.248;10.336;2023-11-19T07:38:40;10.40;99.90
7028;DHT22;3555;53.248;10.336;2023-11-19T07:41:07;10.40;99.90
7028;DHT22;3555;53.248;10.336;2023-11-19T07:43:38;10.50;99.90
7028;DHT22;3555;53.248;10.336;2023-11-19T07:46:06;10.50;99.90
7028;DHT22;3555;53.248;10.336;2023-11-19T07:48:36;10.50;99.90
7028;DHT22;3555;53.248;10.336;2023-11-19T07:51:03;10.40;99.90
7028;DHT22;3555;53.248;10.336;2023-11-19T07:53:30;10.50;99.90
7028;DHT22;3555;53.248;10.336;2023-11-19T07:55:59;10.50;99.90
7028;DHT22;3555;53.248;10.336;2023-11-19T07:58:26;10.50;99.90
7028;DHT22;3555;53.248;10.336;2023-11-19T08:00:53;10.60;99.90
7028;DHT22;3555;53.248;10.336;2023-11-19T08:03:20;10.70;99.90
7028;DHT22;3555;53.248;10.336;2023-11-19T08:05:48;10.70;99.90
7028;DHT22;3555;53.248;10.336;2023-11-19T08:08:15;10.70;99.90
7028;DHT22;3555;53.248;10.336;2023-11-19T08:10:42;10.70;99.90
7028;DHT22;3555;53.248;10.336;2023-11-19T08:13:11;10.70;99.90
7028;DHT22;3555;53.248;10.336;2023-11-19T08:15:38;10.80;99.90
7028;DHT22;3555;53.248;10.336;2023-11-19T08:18:06;10.90;99.90
7028;DHT22;3555;53.248;10.336;2023-11-19T08:20:33;11.00;99.90
7028;DHT22;3555;53.248;10.336;2023-11-19T08:23:01;11.10;99.90
7028;DHT22;3555;53.248;10.336;2023-11-19T08:25:29;11.30;99.90
7028;DHT22;3555;53.248;10.336;2023-11-19T08:27:55;11.20;99.90
7028;DHT22;3555;53.248;10.336;2023-11-19T08:30:24;11.20;99.90
7028;DHT22;3555;53.248;10.336;2023-11-19T08:32:51;11.20;99.90
7028;DHT22;3555;53.248;10.336;2023-11-19T08:35:17;11.30;99.90
7028;DHT22;3555;53.248;10.336;2023-11-19T08:37:45;11.30;99.90
7028;DHT22;3555;53.248;10.336;2023-11-19T08:40:12;11.30;99.90
7028;DHT22;3555;53.248;10.336;2023-11-19T08:42:40;11.30;99.90
7028;DHT22;3555;53.248;10.336;2023-11-19T08:45:08;11.30;99.90
7028;DHT22;3555;53.248;10.336;2023-11-19T08:47:37;11.30;99.90
7028;DHT22;3555;53.248;10.336;2023-11-19T08:50:06;11.40;99.90
7028;DHT22;3555;53.248;10.336;2023-11-19T08:52:33;11.40;99.90
7028;DHT22;3555;53.248;10.336;2023-11-19T08:55:01;11.30;99.90
7028;DHT22;3555;53.248;10.336;2023-11-19T08:57:28;11.30;99.90
7028;DHT22;3555;53.248;10.336;2023-11-19T08:59:55;11.30;99.90
7028;DHT22;3555;53.248;10.336;2023-11-19T09:02:21;11.30;99.90
7028;DHT22;3555;53.248;10.336;2023-11-19T09:04:50;11.20;99.90
7028;DHT22;3555;53.248;10.336;2023-11-19T09:07:17;11.10;99.90
7028;DHT22;3555;53.248;10.336;2023-11-19T09:09:44;11.10;99.90
7028;DHT22;3555;53.248;10.336;2023-11-19T09:12:11;11.10;99.90
7028;DHT22;3555;53.248;10.336;2023-11-19T09:14:39;11.20;99.90
7028;DHT22;3555;53.248;10.336;2023-11-19T09:17:07;11.10;99.90
7028;DHT22;3555;53.248;10.336;2023-11-19T09:19:35;11.20;99.90
7028;DHT22;3555;53.248;10.336;2023-11-19T09:22:03;11.20;99.90
7028;DHT22;3555;53.248;10.336;2023-11-19T09:24:30;11.20;99.90
7028;DHT22;3555;53.248;10.336;2023-11-19T09:26:58;11.30;99.90
7028;DHT22;3555;53.248;10.336;2023-11-19T09:29:25;11.30;99.90
7028;DHT22;3555;53.248;10.336;2023-11-19T09:31:52;11.30;99.90
7028;DHT22;3555;53.248;10.336;2023-11-19T09:34:19;11.40;99.90
7028;DHT22;3555;53.248;10.336;2023-11-19T09:36:46;11.50;99.90
7028;DHT22;3555;53.248;10.336;2023-11-19T09:39:14;11.50;99.90
7028;DHT22;3555;53.248;10.336;2023-11-19T09:41:43;11.40;99.90
7028;DHT22;3555;53.248;10.336;2023-11-19T09:44:10;11.40;99.90
7028;DHT22;3555;53.248;10.336;2023-11-19T09:46:39;11.50;99.90
7028;DHT22;3555;53.248;10.336;2023-11-19T09:49:08;11.50;99.90
7028;DHT22;3555;53.248;10.336;2023-11-19T09:51:37;11.50;99.90
7028;DHT22;3555;53.248;10.336;2023-11-19T09:54:04;11.50;99.90
7028;DHT22;3555;53.248;10.336;2023-11-19T09:56:35;11.50;99.90
7028;DHT22;3555;53.248;10.336;2023-11-19T09:59:02;11.50;99.90
7028;DHT22;3555;53.248;10.336;2023-11-19T10:01:29;11.50;99.90
7028;DHT22;3555;53.248;10.336;2023-11-19T10:03:57;11.50;99.90
7028;DHT22;3555;53.248;10.336;2023-11-19T10:06:25;11.50;99.90
7028;DHT22;3555;53.248;10.336;2023-11-19T10:08:53;11.60;99.90
7028;DHT22;3555;53.248;10.336;2023-11-19T10:11:21;11.60;99.90
7028;DHT22;3555;53.248;10.336;2023-11-19T10:13:49;11.70;99.90
7028;DHT22;3555;53.248;10.336;2023-11-19T10:16:17;11.70;99.90
7028;DHT22;3555;53.248;10.336;2023-11-19T10:18:45;11.80;99.90
7028;DHT22;3555;53.248;10.336;2023-11-19T10:21:12;11.90;99.90
7028;DHT22;3555;53.248;10.336;2023-11-19T10:23:49;12.00;99.90
7028;DHT22;3555;53.248;10.336;2023-11-19T10:26:18;12.00;99.90
7028;DHT22;3555;53.248;10.336;2023-11-19T10:28:46;12.10;99.90
7028;DHT22;3555;53.248;10.336;2023-11-19T10:31:15;12.10;99.90
7028;DHT22;3555;53.248;10.336;2023-11-19T10:33:42;12.10;99.90
7028;DHT22;3555;53.248;10.336;2023-11-19T10:36:12;12.10;99.90
7028;DHT22;3555;53.248;10.336;2023-11-19T10:38:40;12.00;99.90
7028;DHT22;3555;53.248;10.336;2023-11-19T10:41:07;12.00;99.90
7028;DHT22;3555;53.248;10.336;2023-11-19T10:43:44;11.90;99.90
7028;DHT22;3555;53.248;10.336;2023-11-19T10:46:13;11.90;99.90
7028;DHT22;3555;53.248;10.336;2023-11-19T10:48:41;11.90;99.90
7028;DHT22;3555;53.248;10.336;2023-11-19T10:51:08;11.90;99.90
7028;DHT22;3555;53.248;10.336;2023-11-19T10:53:37;11.90;99.90
7028;DHT22;3555;53.248;10.336;2023-11-19T10:56:10;11.90;99.90
7028;DHT22;3555;53.248;10.336;2023-11-19T10:58:42;11.80;99.90
7028;DHT22;3555;53.248;10.336;2023-11-19T11:01:13;11.80;99.90
7028;DHT22;3555;53.248;10.336;2023-11-19T11:03:44;11.80;99.90
7028;DHT22;3555;53.248;10.336;2023-11-19T11:06:13;11.70;99.90
7028;DHT22;3555;53.248;10.336;2023-11-19T11:08:40;11.80;99.90
7028;DHT22;3555;53.248;10.336;2023-11-19T11:11:08;11.80;99.90
7028;DHT22;3555;53.248;10.336;2023-11-19T11:13:37;11.70;99.90
7028;DHT22;3555;53.248;10.336;2023-11-19T11:16:08;11.60;99.90
7028;DHT22;3555;53.248;10.336;2023-11-19T11:18:36;11.50;99.90
7028;DHT22;3555;53.248;10.336;2023-11-19T11:21:08;11.60;99.90
7028;DHT22;3555;53.248;10.336;2023-11-19T11:27:07;11.80;99.90
7028;DHT22;3555;53.248;10.336;2023-11-19T11:29:45;11.80;99.90
7028;DHT22;3555;53.248;10.336;2023-11-19T11:32:22;11.90;99.90
7028;DHT22;3555;53.248;10.336;2023-11-19T11:38:01;12.00;99.90
7028;DHT22;3555;53.248;10.336;2023-11-19T11:40:29;12.00;99.90
7028;DHT22;3555;53.248;10.336;2023-11-19T11:42:57;12.00;99.90
7028;DHT22;3555;53.248;10.336;2023-11-19T11:45:35;12.10;99.90
7028;DHT22;3555;53.248;10.336;2023-11-19T11:48:15;12.10;99.90
7028;DHT22;3555;53.248;10.336;2023-11-19T11:50:53;12.10;99.90
7028;DHT22;3555;53.248;10.336;2023-11-19T11:53:22;12.20;99.90
7028;DHT22;3555;53.248;10.336;2023-11-19T11:55:57;12.20;99.90
7028;DHT22;3555;53.248;10.336;2023-11-19T11:58:27;12.20;99.90
7028;DHT22;3555;53.248;10.336;2023-11-19T12:00:57;12.20;99.90
7028;DHT22;3555;53.248;10.336;2023-11-19T12:03:27;12.10;99.90
7028;DHT22;3555;53.248;10.336;2023-11-19T12:05:54;12.00;99.90
7028;DHT22;3555;53.248;10.336;2023-11-19T12:08:25;12.10;99.90
7028;DHT22;3555;53.248;10.336;2023-11-19T12:10:53;12.10;99.90
7028;DHT22;3555;53.248;10.336;2023-11-19T12:13:24;12.10;99.90
7028;DHT22;3555;53.248;10.336;2023-11-19T12:16:10;12.10;99.90
7028;DHT22;3555;53.248;10.336;2023-11-19T12:18:39;12.00;99.90
7028;DHT22;3555;53.248;10.336;2023-11-19T12:21:07;12.00;99.90
7028;DHT22;3555;53.248;10.336;2023-11-19T12:23:47;12.00;99.90
7028;DHT22;3555;53.248;10.336;2023-11-19T12:26:33;12.00;99.90
7028;DHT22;3555;53.248;10.336;2023-11-19T12:29:01;12.10;99.90
7028;DHT22;3555;53.248;10.336;2023-11-19T12:31:32;12.00;99.90
7028;DHT22;3555;53.248;10.336;2023-11-19T12:34:08;12.00;99.90
7028;DHT22;3555;53.248;10.336;2023-11-19T12:36:38;12.00;99.90
7028;DHT22;3555;53.248;10.336;2023-11-19T12:39:07;12.00;99.90
7028;DHT22;3555;53.248;10.336;2023-11-19T12:41:52;12.10;99.90
7028;DHT22;3555;53.248;10.336;2023-11-19T12:44:20;12.10;99.90
7028;DHT22;3555;53.248;10.336;2023-11-19T12:46:58;12.10;99.90
7028;DHT22;3555;53.248;10.336;2023-11-19T12:49:26;12.00;99.90
7028;DHT22;3555;53.248;10.336;2023-11-19T12:51:53;12.00;99.90
7028;DHT22;3555;53.248;10.336;2023-11-19T12:54:32;12.10;99.90
7028;DHT22;3555;53.248;10.336;2023-11-19T12:56:59;12.00;99.90
7028;DHT22;3555;53.248;10.336;2023-11-19T12:59:26;11.80;99.90
7028;DHT22;3555;53.248;10.336;2023-11-19T13:01:54;11.80;99.90
7028;DHT22;3555;53.248;10.336;2023-11-19T13:04:22;11.80;99.90
7028;DHT22;3555;53.248;10.336;2023-11-19T13:06:50;11.90;99.90
7028;DHT22;3555;53.248;10.336;2023-11-19T13:09:25;11.80;99.90
7028;DHT22;3555;53.248;10.336;2023-11-19T13:11:53;11.90;99.90
7028;DHT22;3555;53.248;10.336;2023-11-19T13:14:20;11.90;99.90
7028;DHT22;3555;53.248;10.336;2023-11-19T13:16:46;11.90;99.90
7028;DHT22;3555;53.248;10.336;2023-11-19T13:19:13;11.90;99.90
7028;DHT22;3555;53.248;10.336;2023-11-19T13:21:41;11.90;99.90
7028;DHT22;3555;53.248;10.336;2023-11-19T13:24:11;11.90;99.90
7028;DHT22;3555;53.248;10.336;2023-11-19T13:26:39;11.90;99.90
7028;DHT22;3555;53.248;10.336;2023-11-19T13:29:06;11.80;99.90
7028;DHT22;3555;53.248;10.336;2023-11-19T13:31:34;11.80;99.90
7028;DHT22;3555;53.248;10.336;2023-11-19T13:34:01;11.70;99.90
7028;DHT22;3555;53.248;10.336;2023-11-19T13:36:28;11.70;99.90
7028;DHT22;3555;53.248;10.336;2023-11-19T13:38:54;11.60;99.90
7028;DHT22;3555;53.248;10.336;2023-11-19T13:41:25;11.70;99.90
7028;DHT22;3555;53.248;10.336;2023-11-19T13:43:53;11.70;99.90
7028;DHT22;3555;53.248;10.336;2023-11-19T13:46:20;11.70;99.90
7028;DHT22;3555;53.248;10.336;2023-11-19T13:48:47;11.60;99.90
7028;DHT22;3555;53.248;10.336;2023-11-19T13:51:15;11.60;99.90
7028;DHT22;3555;53.248;10.336;2023-11-19T13:53:42;11.60;99.90
7028;DHT22;3555;53.248;10.336;2023-11-19T13:56:09;11.50;99.90
7028;DHT22;3555;53.248;10.336;2023-11-19T13:58:36;11.50;99.90
7028;DHT22;3555;53.248;10.336;2023-11-19T14:01:05;11.60;99.90
7028;DHT22;3555;53.248;10.336;2023-11-19T14:03:32;11.60;99.90
7028;DHT22;3555;53.248;10.336;2023-11-19T14:05:59;11.60;99.90
7028;DHT22;3555;53.248;10.336;2023-11-19T14:08:26;11.50;99.90
7028;DHT22;3555;53.248;10.336;2023-11-19T14:10:54;11.50;99.90
7028;DHT22;3555;53.248;10.336;2023-11-19T14:13:22;11.40;99.90
7028;DHT22;3555;53.248;10.336;2023-11-19T14:15:49;11.60;99.90
7028;DHT22;3555;53.248;10.336;2023-11-19T14:18:17;11.40;99.90
7028;DHT22;3555;53.248;10.336;2023-11-19T14:20:45;11.40;99.90
7028;DHT22;3555;53.248;10.336;2023-11-19T14:23:12;11.50;99.90
7028;DHT22;3555;53.248;10.336;2023-11-19T14:25:39;11.50;99.90
7028;DHT22;3555;53.248;10.336;2023-11-19T14:28:06;11.60;99.90
7028;DHT22;3555;53.248;10.336;2023-11-19T14:30:33;11.70;99.90
7028;DHT22;3555;53.248;10.336;2023-11-19T14:33:00;11.50;99.90
7028;DHT22;3555;53.248;10.336;2023-11-19T14:35:28;11.30;99.90
7028;DHT22;3555;53.248;10.336;2023-11-19T14:37:58;11.40;99.90
7028;DHT22;3555;53.248;10.336;2023-11-19T14:40:25;11.30;99.90
7028;DHT22;3555;53.248;10.336;2023-11-19T14:42:52;11.30;99.90
7028;DHT22;3555;53.248;10.336;2023-11-19T14:45:19;11.20;99.90
7028;DHT22;3555;53.248;10.336;2023-11-19T14:47:46;11.20;99.90
7028;DHT22;3555;53.248;10.336;2023-11-19T14:50:13;11.20;99.90
7028;DHT22;3555;53.248;10.336;2023-11-19T14:52:41;11.10;99.90
7028;DHT22;3555;53.248;10.336;2023-11-19T14:55:08;11.10;99.90
7028;DHT22;3555;53.248;10.336;2023-11-19T14:57:37;11.00;99.90
7028;DHT22;3555;53.248;10.336;2023-11-19T15:00:06;11.00;99.90
7028;DHT22;3555;53.248;10.336;2023-11-19T15:02:39;10.90;99.90
7028;DHT22;3555;53.248;10.336;2023-11-19T15:05:06;10.90;99.90
7028;DHT22;3555;53.248;10.336;2023-11-19T15:07:35;10.80;99.90
7028;DHT22;3555;53.248;10.336;2023-11-19T15:10:04;10.80;99.90
7028;DHT22;3555;53.248;10.336;2023-11-19T15:12:36;10.80;99.90
7028;DHT22;3555;53.248;10.336;2023-11-19T15:15:06;10.80;99.90
7028;DHT22;3555;53.248;10.336;2023-11-19T15:17:33;10.70;99.90
7028;DHT22;3555;53.248;10.336;2023-11-19T15:20:02;10.70;99.90
7028;DHT22;3555;53.248;10.336;2023-11-19T15:22:29;10.70;99.90
7028;DHT22;3555;53.248;10.336;2023-11-19T15:24:56;10.70;99.90
7028;DHT22;3555;53.248;10.336;2023-11-19T15:27:25;10.70;99.90
7028;DHT22;3555;53.248;10.336;2023-11-19T15:29:52;10.70;99.90
7028;DHT22;3555;53.248;10.336;2023-11-19T15:32:19;10.80;99.90
7028;DHT22;3555;53.248;10.336;2023-11-19T15:34:46;10.60;99.90
7028;DHT22;3555;53.248;10.336;2023-11-19T15:37:14;10.50;99.90
7028;DHT22;3555;53.248;10.336;2023-11-19T15:39:41;10.50;99.90
7028;DHT22;3555;53.248;10.336;2023-11-19T15:42:08;10.40;99.90
7028;DHT22;3555;53.248;10.336;2023-11-19T15:44:37;10.00;99.90
7028;DHT22;3555;53.248;10.336;2023-11-19T15:47:05;10.40;99.90
7028;DHT22;3555;53.248;10.336;2023-11-19T15:49:32;10.30;99.90
7028;DHT22;3555;53.248;10.336;2023-11-19T15:51:59;10.20;99.90
7028;DHT22;3555;53.248;10.336;2023-11-19T15:54:26;10.10;99.90
7028;DHT22;3555;53.248;10.336;2023-11-19T15:56:53;10.10;99.90
7028;DHT22;3555;53.248;10.336;2023-11-19T15:59:20;10.00;99.90
7028;DHT22;3555;53.248;10.336;2023-11-19T16:01:49;10.10;99.90
7028;DHT22;3555;53.248;10.336;2023-11-19T16:04:16;10.10;99.90